< < Back
Terminal Aerodrome Forecast


Current Version              Previous Versions:   1  2  3  4  5  6  7  8  9  

Terminal Aerodrome Forecast

111
FTUS42 KTAE 161500 AAB
TAFDHN
TAF AMD
KDHN 161539Z 1616/1712 09014G17KT P6SM SKC
     FM162200 08007KT P6SM SCT250
     FM170900 08010KT P6SM BKN015=

Latest METAR

943
SAUS70 KWBC 171300 RRF
MTRDHN
METAR KDHN 171253Z 07010G18KT 10SM BKN049 11/07 A3031 RMK AO2 SLP263
T01110067


USA.gov is the U.S. government's official web portal to all federal, state and local government web resources and services.